Time;durP1;ratioP1;P1;durP2;ratioP2;P2;SDS_P1;SDS_P2;PMS_P1;PMS_P2;Temp;Humidity;BMP_temperature;BMP_pressure;BME280_temperature;BME280_humidity;BME280_pressure;Samples;Min_cycle;Max_cycle;Signal;HPM_P1;HPM_P2
2022/03/30 00:02:00;;;;;;;28.38;19.35;;;12.00;82.90;;;;;;5093633;28;20205;-70
2022/03/30 00:04:27;;;;;;;30.00;19.40;;;12.00;83.00;;;;;;5093461;28;20202;-70
2022/03/30 00:06:53;;;;;;;27.45;19.30;;;12.00;83.30;;;;;;5093553;28;20205;-70
2022/03/30 00:09:20;;;;;;;23.52;19.05;;;12.00;83.60;;;;;;5093263;28;20220;-71
2022/03/30 00:11:47;;;;;;;26.17;19.70;;;12.00;83.60;;;;;;5093550;28;20309;-70
2022/03/30 00:14:14;;;;;;;30.83;18.58;;;12.10;83.80;;;;;;5093328;28;20202;-69
2022/03/30 00:16:41;;;;;;;24.85;18.67;;;12.10;83.70;;;;;;5093453;28;20228;-70
2022/03/30 00:19:09;;;;;;;29.30;20.02;;;12.10;83.90;;;;;;5093158;28;20228;-70
2022/03/30 00:21:36;;;;;;;23.40;18.27;;;12.10;84.00;;;;;;5093471;28;20202;-70
2022/03/30 00:24:03;;;;;;;24.65;18.80;;;12.20;84.50;;;;;;5093040;28;20755;-70
2022/03/30 00:26:30;;;;;;;26.02;18.13;;;12.30;85.00;;;;;;5093347;28;20202;-70
2022/03/30 00:28:56;;;;;;;26.08;19.42;;;12.30;85.30;;;;;;5093066;28;20689;-70
2022/03/30 00:31:23;;;;;;;23.65;18.08;;;12.30;85.30;;;;;;5093380;28;20205;-70
2022/03/30 00:33:52;;;;;;;25.45;19.15;;;12.30;85.30;;;;;;5092958;28;20245;-70
2022/03/30 00:36:20;;;;;;;25.40;18.25;;;12.30;85.00;;;;;;5093248;28;20203;-70
2022/03/30 00:38:47;;;;;;;26.33;20.42;;;12.30;85.00;;;;;;5096292;28;20711;-70
2022/03/30 00:41:14;;;;;;;25.55;19.13;;;12.30;84.60;;;;;;5096922;28;20588;-70
2022/03/30 00:43:41;;;;;;;26.40;18.73;;;12.30;84.10;;;;;;5096891;28;20237;-70
2022/03/30 00:46:10;;;;;;;29.88;18.60;;;12.40;83.80;;;;;;5096826;28;20283;-70
2022/03/30 00:48:36;;;;;;;28.20;18.95;;;12.40;84.00;;;;;;5096841;28;20228;-70
2022/03/30 00:51:03;;;;;;;28.17;18.33;;;12.50;83.30;;;;;;5096898;28;20202;-70
2022/03/30 00:53:32;;;;;;;27.73;19.40;;;12.50;83.10;;;;;;5096774;28;20371;-70
2022/03/30 00:55:59;;;;;;;21.85;17.30;;;12.60;82.80;;;;;;5096902;28;20198;-70
2022/03/30 00:58:27;;;;;;;29.40;19.45;;;12.60;82.60;;;;;;5096710;28;20218;-70
2022/03/30 01:00:54;;;;;;;26.70;18.95;;;12.60;82.10;;;;;;5096416;28;20687;-70
2022/03/30 01:03:21;;;;;;;24.65;19.20;;;12.70;82.50;;;;;;5096417;28;20679;-70
2022/03/30 01:05:47;;;;;;;25.52;18.92;;;12.50;82.10;;;;;;5096568;28;20202;-70
2022/03/30 01:08:14;;;;;;;28.92;18.10;;;12.40;81.80;;;;;;5096257;28;20218;-70
2022/03/30 01:10:43;;;;;;;27.58;19.02;;;12.30;82.30;;;;;;5096305;28;20204;-70
2022/03/30 01:13:09;;;;;;;22.52;18.25;;;12.20;83.70;;;;;;5096333;28;20301;-69
2022/03/30 01:15:38;;;;;;;23.17;18.10;;;12.40;83.90;;;;;;5096409;28;20668;-70
2022/03/30 01:18:05;;;;;;;25.73;18.70;;;12.50;83.90;;;;;;5096286;28;20202;-70
2022/03/30 01:20:32;;;;;;;26.33;18.10;;;12.60;83.50;;;;;;5096238;28;20217;-70
2022/03/30 01:23:02;;;;;;;26.17;19.35;;;12.70;83.80;;;;;;5095852;28;20672;-69
2022/03/30 01:25:29;;;;;;;27.42;19.73;;;12.70;84.30;;;;;;5096274;28;20202;-70
2022/03/30 01:27:56;;;;;;;30.92;19.13;;;12.70;83.60;;;;;;5095808;28;20301;-70
2022/03/30 01:33:08;;;;;;;26.73;18.95;;;12.80;84.50;;;;;;5095788;28;20662;-70
2022/03/30 01:35:35;;;;;;;25.60;19.05;;;12.80;84.50;;;;;;5096069;28;20559;-70
2022/03/30 01:38:04;;;;;;;29.08;21.02;;;12.90;83.90;;;;;;5095767;28;20209;-70
2022/03/30 01:40:31;;;;;;;26.17;19.02;;;13.00;83.30;;;;;;5095579;28;20308;-70
2022/03/30 01:42:58;;;;;;;27.35;18.85;;;13.00;83.70;;;;;;5095758;28;20233;-69
2022/03/30 01:45:25;;;;;;;24.55;19.17;;;12.90;84.20;;;;;;5095618;28;20208;-70
2022/03/30 01:47:55;;;;;;;30.10;19.20;;;12.80;85.40;;;;;;5095501;28;20717;-69
2022/03/30 01:50:22;;;;;;;25.58;18.58;;;12.90;85.90;;;;;;5095102;28;20272;-70
2022/03/30 01:52:49;;;;;;;24.60;18.95;;;12.70;88.10;;;;;;5095666;28;20208;-70
2022/03/30 01:55:18;;;;;;;27.58;19.40;;;12.70;89.20;;;;;;5095442;28;20678;-70
2022/03/30 01:57:45;;;;;;;29.88;19.80;;;12.70;88.70;;;;;;5095513;28;20206;-70
2022/03/30 02:00:15;;;;;;;24.67;19.92;;;12.70;87.90;;;;;;5095623;28;20572;-70
2022/03/30 02:02:42;;;;;;;24.02;17.70;;;12.50;88.60;;;;;;5095358;28;20206;-70
2022/03/30 02:05:10;;;;;;;26.17;19.05;;;12.50;90.10;;;;;;5095327;28;20198;-70
2022/03/30 02:07:37;;;;;;;23.02;18.35;;;12.60;88.10;;;;;;5095402;28;20305;-70
2022/03/30 02:10:05;;;;;;;25.65;19.35;;;12.70;87.10;;;;;;5095375;28;20224;-70
2022/03/30 02:12:34;;;;;;;24.52;18.65;;;12.60;86.50;;;;;;5095260;28;20209;-70
2022/03/30 02:15:01;;;;;;;26.35;18.50;;;12.70;86.40;;;;;;5095136;28;20202;-70
2022/03/30 02:17:27;;;;;;;24.48;18.83;;;12.70;86.20;;;;;;5095242;28;20206;-70
2022/03/30 02:19:55;;;;;;;26.35;18.30;;;12.80;85.70;;;;;;5095166;28;20682;-70
2022/03/30 02:22:22;;;;;;;25.85;19.92;;;12.80;85.50;;;;;;5095125;28;20288;-70
2022/03/30 02:24:49;;;;;;;25.70;20.00;;;12.60;85.30;;;;;;5094716;28;20202;-70
2022/03/30 02:27:18;;;;;;;24.52;18.92;;;12.30;86.70;;;;;;5094929;28;20591;-70
2022/03/30 02:29:47;;;;;;;28.25;19.95;;;12.10;88.60;;;;;;5094717;28;20715;-70
2022/03/30 02:32:14;;;;;;;23.13;18.10;;;12.30;90.10;;;;;;5094956;28;20308;-70
2022/03/30 02:34:41;;;;;;;28.13;19.02;;;12.30;90.20;;;;;;5094750;28;20212;-69
2022/03/30 02:37:08;;;;;;;25.42;18.90;;;12.20;90.30;;;;;;5094911;28;20297;-70
2022/03/30 02:39:35;;;;;;;27.15;19.77;;;12.20;90.70;;;;;;5094702;28;20222;-70
2022/03/30 02:42:02;;;;;;;30.33;19.40;;;12.20;91.00;;;;;;5094687;28;20580;-70
2022/03/30 02:44:29;;;;;;;24.55;18.92;;;12.10;90.90;;;;;;5094271;28;20213;-70
2022/03/30 02:46:57;;;;;;;26.88;18.90;;;12.20;91.20;;;;;;5094670;28;20204;-70
2022/03/30 02:49:25;;;;;;;28.77;18.65;;;12.20;91.10;;;;;;5094281;28;20222;-70
2022/03/30 02:51:52;;;;;;;26.13;17.90;;;12.40;90.90;;;;;;5094307;28;20201;-70
2022/03/30 02:54:19;;;;;;;25.77;18.42;;;12.40;90.70;;;;;;5094380;28;20241;-70
2022/03/30 02:56:46;;;;;;;28.55;19.30;;;12.50;90.80;;;;;;5094557;28;20209;-70
2022/03/30 02:59:14;;;;;;;28.80;20.40;;;12.40;90.70;;;;;;5094455;28;20248;-70
2022/03/30 03:01:41;;;;;;;23.00;19.02;;;12.50;90.20;;;;;;5093223;28;20230;-70
2022/03/30 03:04:09;;;;;;;25.02;18.67;;;12.50;89.70;;;;;;5094050;28;20198;-70
2022/03/30 03:06:36;;;;;;;23.80;19.15;;;12.50;89.40;;;;;;5094302;28;20230;-70
2022/03/30 03:09:03;;;;;;;26.85;19.02;;;12.60;88.60;;;;;;5094250;28;20221;-70
2022/03/30 03:11:30;;;;;;;25.25;19.30;;;12.50;89.60;;;;;;5094263;28;20247;-70
2022/03/30 03:13:57;;;;;;;28.23;20.27;;;12.50;90.30;;;;;;5093691;28;20660;-70
2022/03/30 03:16:24;;;;;;;24.60;18.45;;;12.40;90.00;;;;;;5094198;28;20202;-70
2022/03/30 03:18:51;;;;;;;28.35;19.83;;;12.50;90.10;;;;;;5094040;28;20226;-70
2022/03/30 03:21:19;;;;;;;26.77;19.58;;;12.40;90.10;;;;;;5094527;28;20218;-69
2022/03/30 03:23:46;;;;;;;23.23;18.85;;;12.30;90.30;;;;;;5093927;28;20212;-70
2022/03/30 03:26:13;;;;;;;29.90;19.30;;;12.20;90.40;;;;;;5093896;28;20729;-70
2022/03/30 03:28:39;;;;;;;25.73;19.45;;;12.10;90.60;;;;;;5093702;28;20240;-70
2022/03/30 03:31:06;;;;;;;27.05;19.83;;;12.10;90.60;;;;;;5093747;28;20290;-70
2022/03/30 03:33:33;;;;;;;24.73;19.05;;;12.20;90.90;;;;;;5093684;28;20209;-69
2022/03/30 03:36:00;;;;;;;26.98;19.42;;;12.30;90.40;;;;;;5090226;28;20198;-70
2022/03/30 03:38:28;;;;;;;33.78;20.02;;;12.40;90.00;;;;;;5080513;28;20321;-70
2022/03/30 03:40:55;;;;;;;24.13;19.48;;;12.40;89.20;;;;;;5072593;28;20272;-70
2022/03/30 03:43:22;;;;;;;28.52;19.45;;;12.50;89.00;;;;;;5072425;28;20293;-70
2022/03/30 03:45:49;;;;;;;24.83;19.27;;;12.60;90.00;;;;;;5072309;28;20636;-69
2022/03/30 03:48:15;;;;;;;26.75;20.65;;;12.60;90.20;;;;;;5071863;28;20222;-70
2022/03/30 03:50:43;;;;;;;26.33;19.77;;;12.50;89.40;;;;;;5072123;28;20209;-70
2022/03/30 03:53:10;;;;;;;29.30;20.05;;;12.30;90.10;;;;;;5072054;28;20260;-69
2022/03/30 03:55:38;;;;;;;25.02;19.85;;;12.00;90.20;;;;;;5072275;28;20756;-70
2022/03/30 03:58:07;;;;;;;26.00;18.63;;;12.10;90.70;;;;;;5072502;28;20663;-70
2022/03/30 04:00:35;;;;;;;28.38;19.27;;;12.10;90.90;;;;;;5071640;28;20219;-69
2022/03/30 04:03:03;;;;;;;24.60;19.35;;;12.00;90.70;;;;;;5072196;28;20298;-70
2022/03/30 04:05:30;;;;;;;26.88;18.90;;;11.90;91.00;;;;;;5072359;28;20203;-70
2022/03/30 04:07:56;;;;;;;24.27;20.08;;;12.00;91.60;;;;;;5072728;28;20240;-70
2022/03/30 04:10:23;;;;;;;25.98;18.20;;;11.90;92.30;;;;;;5073402;28;20213;-70
2022/03/30 04:12:51;;;;;;;25.13;19.27;;;12.00;92.30;;;;;;5075261;28;20211;-70
2022/03/30 04:15:18;;;;;;;25.20;18.63;;;12.10;92.50;;;;;;5077162;28;20630;-70
2022/03/30 04:17:47;;;;;;;31.98;20.17;;;12.30;92.20;;;;;;5077354;28;20217;-70
2022/03/30 04:20:15;;;;;;;27.55;19.75;;;12.20;92.30;;;;;;5077259;28;20293;-70
2022/03/30 04:22:43;;;;;;;28.30;20.73;;;12.30;92.60;;;;;;5077109;28;20755;-70
2022/03/30 04:25:10;;;;;;;29.23;21.42;;;12.40;92.90;;;;;;5077008;28;20260;-70
2022/03/30 04:27:44;;;;;;;26.38;20.90;;;12.40;93.10;;;;;;5077016;28;20219;-70
2022/03/30 04:30:12;;;;;;;26.40;19.30;;;12.40;93.20;;;;;;5077112;28;20226;-70
2022/03/30 04:32:39;;;;;;;27.48;21.17;;;12.40;93.90;;;;;;5077004;28;20205;-70
2022/03/30 04:35:07;;;;;;;33.67;22.33;;;12.40;94.00;;;;;;5076656;28;20602;-70
2022/03/30 04:37:34;;;;;;;33.17;21.45;;;12.30;93.70;;;;;;5076859;28;20210;-70
2022/03/30 04:40:01;;;;;;;30.35;20.50;;;12.40;94.10;;;;;;5076598;28;20252;-70
2022/03/30 04:42:27;;;;;;;27.05;19.70;;;12.40;94.70;;;;;;5076594;28;20226;-70
2022/03/30 04:44:54;;;;;;;29.02;19.70;;;12.40;94.90;;;;;;5076278;28;20674;-70
2022/03/30 04:47:22;;;;;;;24.20;17.60;;;12.30;94.90;;;;;;5076681;28;20205;-70
2022/03/30 04:49:49;;;;;;;27.55;18.02;;;12.40;95.60;;;;;;5076697;28;20219;-70
2022/03/30 04:52:16;;;;;;;20.48;14.85;;;12.30;95.80;;;;;;5076788;28;20195;-70
2022/03/30 04:54:43;;;;;;;26.75;15.18;;;12.30;96.40;;;;;;5076206;28;20207;-69
2022/03/30 04:57:10;;;;;;;23.95;15.52;;;12.30;97.30;;;;;;5076316;28;20209;-70
2022/03/30 04:59:36;;;;;;;23.27;15.32;;;12.20;98.20;;;;;;5076598;28;20254;-70
2022/03/30 05:02:04;;;;;;;20.20;14.57;;;12.20;99.60;;;;;;5076466;28;20233;-70
2022/03/30 05:04:33;;;;;;;23.48;14.00;;;12.00;99.90;;;;;;5076257;28;20199;-70
2022/03/30 05:06:59;;;;;;;25.65;15.55;;;11.90;99.90;;;;;;5076294;28;20623;-70
2022/03/30 05:09:26;;;;;;;26.85;15.20;;;11.90;99.90;;;;;;5076138;28;20254;-70
2022/03/30 05:11:53;;;;;;;26.80;15.02;;;11.80;99.90;;;;;;5076037;28;20199;-70
2022/03/30 05:14:20;;;;;;;29.63;14.85;;;11.70;99.90;;;;;;5076113;28;20662;-70
2022/03/30 05:16:47;;;;;;;21.70;15.25;;;11.70;99.90;;;;;;5076223;28;20198;-70
2022/03/30 05:19:13;;;;;;;23.90;14.40;;;11.60;99.90;;;;;;5075876;28;20314;-70
2022/03/30 05:21:42;;;;;;;25.20;15.73;;;11.50;99.90;;;;;;5076142;28;20219;-69
2022/03/30 05:24:08;;;;;;;24.70;15.75;;;11.50;99.90;;;;;;5074655;28;20214;-70
2022/03/30 05:26:35;;;;;;;26.92;15.07;;;11.50;99.90;;;;;;5076442;28;20203;-70
2022/03/30 05:29:05;;;;;;;26.02;16.20;;;11.40;99.90;;;;;;5075729;28;20240;-70
2022/03/30 05:31:32;;;;;;;23.67;16.08;;;11.30;99.90;;;;;;5075934;28;20202;-70
2022/03/30 05:33:59;;;;;;;31.83;21.50;;;11.30;99.90;;;;;;5075693;28;20199;-70
2022/03/30 05:36:26;;;;;;;24.85;16.80;;;11.30;99.90;;;;;;5075790;28;20199;-70
2022/03/30 05:38:54;;;;;;;26.45;16.75;;;11.30;99.90;;;;;;5075818;28;20226;-70
2022/03/30 05:41:21;;;;;;;28.15;16.58;;;11.30;99.90;;;;;;5075489;28;20223;-70
2022/03/30 05:43:48;;;;;;;28.10;16.90;;;11.30;99.90;;;;;;5075524;28;20209;-70
2022/03/30 05:46:14;;;;;;;26.98;15.95;;;11.30;99.90;;;;;;5075635;28;20199;-70
2022/03/30 05:48:41;;;;;;;27.35;17.67;;;11.30;99.90;;;;;;5075356;28;20780;-70
2022/03/30 05:51:08;;;;;;;26.13;17.65;;;11.30;99.90;;;;;;5075575;28;20294;-70
2022/03/30 05:53:35;;;;;;;27.60;16.30;;;11.30;99.90;;;;;;5075385;28;20558;-70
2022/03/30 05:56:04;;;;;;;30.75;19.73;;;11.30;99.90;;;;;;5075491;28;20203;-70
2022/03/30 05:58:31;;;;;;;25.15;17.75;;;11.30;99.90;;;;;;5075281;28;20225;-70
2022/03/30 06:00:57;;;;;;;24.40;17.02;;;11.30;99.90;;;;;;5075360;28;20230;-70
2022/03/30 06:03:24;;;;;;;27.42;17.95;;;11.40;99.90;;;;;;5075042;28;20682;-70
2022/03/30 06:05:51;;;;;;;24.95;17.65;;;11.30;99.90;;;;;;5075247;28;20199;-70
2022/03/30 06:08:18;;;;;;;24.10;17.77;;;11.30;99.90;;;;;;5075150;28;20256;-70
2022/03/30 06:10:46;;;;;;;27.30;18.15;;;11.40;99.90;;;;;;5075261;28;20289;-70
2022/03/30 06:13:14;;;;;;;24.58;16.98;;;11.40;99.90;;;;;;5074941;28;20202;-69
2022/03/30 06:15:41;;;;;;;28.40;18.23;;;11.40;99.90;;;;;;5075019;28;20234;-70
2022/03/30 06:18:11;;;;;;;25.13;16.42;;;11.40;99.90;;;;;;5074985;28;20230;-70
2022/03/30 06:20:39;;;;;;;28.63;17.58;;;11.40;99.90;;;;;;5075438;28;20225;-70
2022/03/30 06:23:06;;;;;;;26.88;16.70;;;11.50;99.90;;;;;;5074658;28;20229;-70
2022/03/30 06:25:33;;;;;;;25.08;16.65;;;11.50;99.90;;;;;;5074876;28;20210;-70
2022/03/30 06:28:00;;;;;;;31.65;19.23;;;11.50;99.90;;;;;;5074548;28;20218;-70
2022/03/30 06:30:29;;;;;;;27.10;18.52;;;11.40;99.90;;;;;;5074846;28;20571;-70
2022/03/30 06:32:57;;;;;;;26.90;17.75;;;11.30;99.90;;;;;;5074662;28;20561;-70
2022/03/30 06:35:25;;;;;;;29.27;18.05;;;11.20;99.90;;;;;;5074223;28;20229;-70
2022/03/30 06:37:52;;;;;;;30.48;18.33;;;11.20;99.90;;;;;;5074522;28;20208;-70
2022/03/30 06:40:19;;;;;;;28.98;19.42;;;11.00;99.90;;;;;;5074660;28;20205;-70
2022/03/30 06:42:48;;;;;;;36.15;21.08;;;10.80;99.90;;;;;;5074509;28;20258;-70
2022/03/30 06:45:15;;;;;;;33.10;19.90;;;10.70;99.90;;;;;;5074231;28;20252;-70
2022/03/30 06:47:43;;;;;;;32.30;19.90;;;10.60;99.90;;;;;;5074204;28;20213;-70
2022/03/30 06:50:11;;;;;;;36.22;20.42;;;10.50;99.90;;;;;;5074412;28;20226;-70
2022/03/30 06:52:38;;;;;;;36.33;18.52;;;10.50;99.90;;;;;;5074354;28;20249;-70
2022/03/30 06:55:06;;;;;;;31.63;19.95;;;10.50;99.90;;;;;;5074216;28;20206;-70
2022/03/30 06:57:33;;;;;;;26.08;16.65;;;10.60;99.90;;;;;;5074221;28;20367;-70
2022/03/30 07:00:00;;;;;;;30.58;18.88;;;10.60;99.90;;;;;;5074138;28;20219;-69
2022/03/30 07:02:27;;;;;;;24.80;17.95;;;10.60;99.90;;;;;;5074108;28;20226;-70
2022/03/30 07:04:55;;;;;;;30.05;18.70;;;10.60;99.90;;;;;;5073991;28;20293;-70
2022/03/30 07:10:16;;;;;;;30.23;20.23;;;10.70;99.90;;;;;;5073825;28;20222;-70
2022/03/30 07:12:44;;;;;;;28.05;20.02;;;10.80;99.90;;;;;;5074083;28;20209;-70
2022/03/30 07:15:11;;;;;;;27.15;18.48;;;10.90;99.90;;;;;;5073837;28;20202;-70
2022/03/30 07:17:44;;;;;;;31.35;19.77;;;10.90;99.90;;;;;;5073963;28;20230;-70
2022/03/30 07:20:14;;;;;;;28.80;19.90;;;11.00;99.90;;;;;;5073600;28;20252;-70
2022/03/30 07:22:41;;;;;;;29.40;18.83;;;11.20;99.90;;;;;;5073742;28;20225;-70
2022/03/30 07:25:08;;;;;;;31.55;20.88;;;11.30;99.90;;;;;;5073399;28;20209;-70
2022/03/30 07:27:35;;;;;;;35.88;20.20;;;11.30;99.90;;;;;;5073377;28;20215;-70
2022/03/30 07:30:02;;;;;;;34.00;19.27;;;11.50;99.90;;;;;;5073764;28;20265;-70
2022/03/30 07:32:28;;;;;;;26.65;20.40;;;11.50;99.90;;;;;;5073759;28;20242;-70
2022/03/30 07:34:55;;;;;;;27.30;20.50;;;11.50;99.90;;;;;;5073460;28;20213;-70
2022/03/30 07:37:24;;;;;;;29.33;19.55;;;11.60;99.90;;;;;;5073632;28;20634;-70
2022/03/30 07:39:51;;;;;;;30.42;20.75;;;11.60;99.90;;;;;;5073746;28;20580;-70
2022/03/30 07:42:17;;;;;;;30.98;21.27;;;11.60;99.90;;;;;;5073583;28;20325;-70
2022/03/30 07:44:44;;;;;;;32.67;21.73;;;11.50;99.90;;;;;;5073489;28;20199;-70
2022/03/30 07:47:11;;;;;;;33.90;22.23;;;11.40;99.90;;;;;;5072999;28;20203;-70
2022/03/30 07:49:38;;;;;;;37.88;24.70;;;11.20;99.90;;;;;;5073262;28;20218;-70
2022/03/30 07:52:05;;;;;;;42.17;24.80;;;11.10;99.90;;;;;;5073524;28;20203;-70
2022/03/30 07:54:33;;;;;;;37.75;24.58;;;10.90;99.90;;;;;;5073371;28;20198;-70
2022/03/30 07:57:00;;;;;;;34.90;23.13;;;10.90;99.90;;;;;;5073533;28;20198;-70
2022/03/30 07:59:27;;;;;;;34.28;23.55;;;11.00;99.90;;;;;;5073497;28;20314;-70
2022/03/30 08:01:57;;;;;;;35.00;25.20;;;11.10;99.90;;;;;;5073316;28;20218;-70
2022/03/30 08:04:24;;;;;;;39.67;25.27;;;11.10;99.90;;;;;;5073084;28;20206;-70
2022/03/30 08:06:50;;;;;;;46.53;25.85;;;11.20;99.90;;;;;;5073447;28;20209;-70
2022/03/30 08:09:17;;;;;;;40.70;26.67;;;11.30;99.90;;;;;;5073965;28;20557;-70
2022/03/30 08:11:45;;;;;;;43.53;26.40;;;11.30;99.90;;;;;;5073228;28;20213;-70
2022/03/30 08:14:12;;;;;;;44.25;27.55;;;11.30;99.90;;;;;;5073048;28;20293;-70
2022/03/30 08:16:41;;;;;;;44.38;26.83;;;11.30;99.90;;;;;;5073330;28;20203;-70
2022/03/30 08:19:08;;;;;;;45.08;27.25;;;11.40;99.90;;;;;;5073082;28;20219;-70
2022/03/30 08:24:21;;;;;;;40.00;26.33;;;11.50;99.90;;;;;;5073026;28;20249;-70
2022/03/30 08:26:49;;;;;;;37.78;25.80;;;11.50;99.90;;;;;;5073228;28;20293;-70
2022/03/30 08:29:16;;;;;;;39.40;26.35;;;11.70;99.90;;;;;;5072985;28;20234;-70
2022/03/30 08:31:43;;;;;;;42.85;26.33;;;11.60;99.90;;;;;;5072910;28;20672;-70
2022/03/30 08:34:10;;;;;;;36.63;25.05;;;11.50;99.90;;;;;;5072974;28;20199;-70
2022/03/30 08:36:37;;;;;;;38.72;23.75;;;11.40;99.90;;;;;;5072959;28;20211;-70
2022/03/30 08:39:10;;;;;;;40.85;23.30;;;11.40;99.90;;;;;;5072808;28;20226;-70
2022/03/30 08:41:40;;;;;;;36.00;22.95;;;11.40;99.90;;;;;;5072763;28;20637;-70
2022/03/30 08:44:09;;;;;;;28.50;20.20;;;11.40;99.90;;;;;;5072667;28;20203;-70
2022/03/30 08:46:37;;;;;;;33.83;20.52;;;11.40;99.90;;;;;;5073024;28;20209;-70
2022/03/30 08:49:04;;;;;;;31.30;20.55;;;11.40;99.90;;;;;;5072998;28;20227;-70
2022/03/30 08:51:32;;;;;;;30.10;19.40;;;11.30;99.90;;;;;;5072978;28;20230;-70
2022/03/30 08:53:59;;;;;;;28.25;19.95;;;11.30;99.90;;;;;;5072666;28;20206;-70
2022/03/30 08:56:26;;;;;;;27.20;18.48;;;11.30;99.90;;;;;;5072818;28;20207;-70
2022/03/30 08:58:55;;;;;;;25.25;17.10;;;11.40;99.90;;;;;;5074673;28;20227;-70
2022/03/30 09:01:24;;;;;;;26.50;17.60;;;11.50;99.90;;;;;;5076526;28;20564;-70
2022/03/30 09:03:58;;;;;;;26.77;16.95;;;11.60;99.90;;;;;;5075980;28;20219;-69
2022/03/30 09:06:35;;;;;;;27.38;16.73;;;11.70;99.90;;;;;;5076438;28;20202;-70
2022/03/30 09:09:03;;;;;;;32.90;17.65;;;11.80;99.90;;;;;;5076187;28;20332;-70
2022/03/30 09:11:37;;;;;;;23.60;16.30;;;11.90;99.90;;;;;;5076360;28;20203;-70
2022/03/30 09:14:05;;;;;;;24.45;14.70;;;12.00;99.90;;;;;;5076213;28;20217;-70
2022/03/30 09:16:41;;;;;;;27.40;17.17;;;12.10;99.90;;;;;;5076248;28;20209;-70
2022/03/30 09:19:10;;;;;;;26.15;16.27;;;12.20;99.90;;;;;;5076033;28;20222;-70
2022/03/30 09:21:44;;;;;;;24.40;16.08;;;12.20;99.90;;;;;;5076154;28;20199;-70
2022/03/30 09:24:12;;;;;;;24.27;15.80;;;12.20;99.90;;;;;;5075860;28;20233;-70
2022/03/30 09:26:39;;;;;;;23.27;15.98;;;12.20;99.90;;;;;;5075886;28;20693;-70
2022/03/30 09:29:07;;;;;;;21.17;14.07;;;12.30;99.90;;;;;;5076188;28;20230;-70
2022/03/30 09:31:35;;;;;;;19.17;14.43;;;12.20;99.90;;;;;;5076019;28;20206;-70
2022/03/30 09:34:05;;;;;;;23.70;16.23;;;12.20;99.90;;;;;;5075610;28;20249;-70
2022/03/30 09:36:33;;;;;;;24.23;15.75;;;12.20;99.90;;;;;;5075856;28;20199;-70
2022/03/30 09:39:00;;;;;;;21.35;13.85;;;12.10;99.90;;;;;;5075848;28;20230;-70
2022/03/30 09:41:27;;;;;;;25.13;14.32;;;12.00;99.90;;;;;;5075766;28;20206;-70
2022/03/30 09:44:03;;;;;;;24.10;14.32;;;12.00;99.90;;;;;;5075393;28;20222;-70
2022/03/30 09:46:30;;;;;;;24.73;14.55;;;12.10;99.90;;;;;;5075393;28;20225;-70
2022/03/30 09:48:57;;;;;;;25.70;15.30;;;12.10;99.90;;;;;;5075634;28;20233;-70
2022/03/30 09:51:29;;;;;;;19.98;15.70;;;12.10;99.90;;;;;;5075640;28;20212;-70
2022/03/30 09:53:56;;;;;;;22.60;15.25;;;12.20;99.90;;;;;;5075327;28;20230;-70
2022/03/30 09:56:24;;;;;;;23.75;14.57;;;12.20;99.90;;;;;;5075451;28;20207;-70
2022/03/30 09:59:00;;;;;;;28.17;15.13;;;12.30;99.90;;;;;;5075388;28;20619;-70
2022/03/30 10:01:29;;;;;;;24.58;14.85;;;12.30;99.90;;;;;;5075474;28;20202;-70
2022/03/30 10:03:59;;;;;;;25.13;14.75;;;12.40;99.90;;;;;;5075151;28;20313;-70
2022/03/30 10:06:29;;;;;;;23.58;14.88;;;12.40;99.90;;;;;;5075306;28;20254;-70
2022/03/30 10:08:57;;;;;;;21.98;14.73;;;12.40;99.90;;;;;;5075623;28;20254;-70
2022/03/30 10:11:25;;;;;;;21.85;14.07;;;12.30;99.90;;;;;;5074376;28;20203;-70
2022/03/30 10:13:54;;;;;;;24.90;15.40;;;12.40;99.90;;;;;;5074923;28;20245;-70
2022/03/30 10:16:22;;;;;;;21.02;14.40;;;12.40;99.90;;;;;;5075146;28;20538;-70
2022/03/30 10:18:51;;;;;;;22.58;14.65;;;12.50;99.90;;;;;;5074882;28;20679;-70
2022/03/30 10:21:24;;;;;;;20.30;14.10;;;12.40;99.90;;;;;;5075041;28;20260;-70
2022/03/30 10:24:07;;;;;;;21.35;14.50;;;12.50;99.90;;;;;;5074528;28;20688;-70
2022/03/30 10:26:44;;;;;;;19.95;14.07;;;12.60;99.90;;;;;;5074962;28;20206;-70
2022/03/30 10:29:15;;;;;;;21.33;14.32;;;12.60;99.90;;;;;;5074526;28;20321;-70
2022/03/30 10:31:42;;;;;;;23.13;14.88;;;12.50;99.90;;;;;;5074732;28;20203;-70
2022/03/30 10:34:26;;;;;;;25.77;15.20;;;12.60;99.90;;;;;;5074365;28;20665;-69
2022/03/30 10:37:00;;;;;;;20.05;14.40;;;12.40;99.90;;;;;;5074675;28;20617;-70
2022/03/30 10:39:28;;;;;;;24.77;15.48;;;12.50;99.90;;;;;;5074636;28;20218;-70
2022/03/30 10:42:04;;;;;;;20.02;15.45;;;12.50;99.90;;;;;;5074541;28;20297;-70
2022/03/30 10:44:36;;;;;;;22.85;15.20;;;12.60;99.90;;;;;;5074077;28;20222;-70
2022/03/30 10:47:14;;;;;;;24.35;16.10;;;12.60;99.90;;;;;;5074456;28;20209;-70
2022/03/30 10:49:43;;;;;;;24.10;14.15;;;12.60;99.90;;;;;;5074446;28;20227;-70
2022/03/30 10:52:29;;;;;;;25.70;17.13;;;12.60;99.90;;;;;;5074401;28;20203;-70
2022/03/30 10:55:29;;;;;;;29.13;15.20;;;12.70;99.90;;;;;;5074192;28;20572;-70
2022/03/30 10:57:58;;;;;;;30.20;17.48;;;12.80;99.90;;;;;;5074210;28;20242;-70
2022/03/30 11:00:27;;;;;;;20.85;14.68;;;12.60;99.90;;;;;;5074316;28;20299;-70
2022/03/30 11:03:07;;;;;;;25.15;16.63;;;12.30;99.90;;;;;;5073975;28;20229;-70
2022/03/30 11:05:35;;;;;;;23.52;16.33;;;12.10;99.90;;;;;;5074189;28;20207;-70
2022/03/30 11:08:04;;;;;;;24.48;15.32;;;12.00;99.90;;;;;;5074062;28;20276;-70
2022/03/30 11:10:49;;;;;;;25.77;16.42;;;12.20;99.90;;;;;;5074136;28;20253;-70
2022/03/30 11:13:25;;;;;;;26.52;15.65;;;12.20;99.90;;;;;;5074146;28;20206;-70
2022/03/30 11:16:12;;;;;;;28.27;16.30;;;12.30;99.90;;;;;;5074082;28;20289;-70
2022/03/30 11:19:00;;;;;;;26.83;16.35;;;12.20;99.90;;;;;;5073966;28;20301;-70
2022/03/30 11:21:27;;;;;;;32.00;17.75;;;12.30;99.90;;;;;;5073322;28;20202;-70
2022/03/30 11:24:20;;;;;;;24.88;16.88;;;12.30;99.90;;;;;;5073322;28;20229;-70
2022/03/30 11:27:19;;;;;;;23.70;17.50;;;12.40;99.90;;;;;;5071951;28;20215;-70
2022/03/30 11:30:03;;;;;;;25.17;17.25;;;12.50;99.90;;;;;;5073812;28;20657;-70
2022/03/30 11:32:49;;;;;;;25.33;19.00;;;12.60;99.90;;;;;;5073575;28;20225;-70
2022/03/30 11:35:18;;;;;;;25.88;19.05;;;12.60;99.90;;;;;;5073598;28;20568;-70
2022/03/30 11:37:46;;;;;;;32.88;18.48;;;12.70;99.90;;;;;;5073655;28;20207;-70
2022/03/30 11:40:14;;;;;;;27.95;18.85;;;12.40;99.90;;;;;;5073376;28;20790;-70
2022/03/30 11:42:43;;;;;;;30.60;19.83;;;12.20;99.90;;;;;;5073397;28;20199;-70
2022/03/30 11:45:13;;;;;;;25.35;18.85;;;11.90;99.90;;;;;;5073423;28;20283;-70
2022/03/30 11:47:41;;;;;;;30.80;20.95;;;11.90;99.90;;;;;;5074456;28;20207;-70
2022/03/30 11:50:08;;;;;;;23.88;17.77;;;12.00;99.90;;;;;;5073575;28;20226;-70
2022/03/30 11:52:35;;;;;;;29.58;18.02;;;12.20;99.90;;;;;;5073531;28;20213;-70
2022/03/30 11:55:02;;;;;;;27.27;19.25;;;12.30;99.90;;;;;;5073373;28;20213;-70
2022/03/30 11:57:29;;;;;;;27.83;18.55;;;12.40;99.90;;;;;;5073514;28;20198;-70
2022/03/30 11:59:57;;;;;;;29.17;19.00;;;12.50;99.90;;;;;;5073411;28;20249;-70
2022/03/30 12:02:27;;;;;;;25.23;19.00;;;12.60;99.90;;;;;;5073245;28;20207;-70
2022/03/30 12:04:55;;;;;;;29.23;18.80;;;12.60;99.90;;;;;;5073234;28;20222;-70
2022/03/30 12:07:22;;;;;;;27.50;18.42;;;12.60;99.90;;;;;;5073396;28;20209;-70
2022/03/30 12:09:50;;;;;;;31.50;19.48;;;12.70;99.90;;;;;;5073374;28;20222;-70
2022/03/30 12:12:26;;;;;;;28.42;18.40;;;12.80;99.90;;;;;;5073312;28;20205;-70
2022/03/30 12:14:57;;;;;;;28.60;19.92;;;12.80;99.90;;;;;;5073002;28;20656;-70
2022/03/30 12:17:26;;;;;;;23.33;18.13;;;12.90;99.90;;;;;;5073359;28;20228;-70
2022/03/30 12:19:53;;;;;;;28.38;19.05;;;12.80;99.90;;;;;;5073282;28;20577;-70
2022/03/30 12:22:20;;;;;;;31.98;19.02;;;12.90;99.90;;;;;;5073220;28;20665;-70
2022/03/30 12:24:47;;;;;;;27.08;19.00;;;12.90;99.90;;;;;;5072782;28;20609;-69
2022/03/30 12:27:14;;;;;;;23.38;18.00;;;12.90;99.90;;;;;;5072828;28;20293;-71
2022/03/30 12:29:44;;;;;;;29.00;20.15;;;12.70;99.90;;;;;;5073236;28;20222;-70
2022/03/30 12:32:13;;;;;;;25.13;17.75;;;12.70;99.90;;;;;;5073239;28;20210;-70
2022/03/30 12:34:41;;;;;;;25.90;19.92;;;12.70;99.90;;;;;;5076041;28;20207;-69
2022/03/30 12:37:10;;;;;;;24.85;19.33;;;12.60;99.90;;;;;;5077097;28;20203;-70
2022/03/30 12:39:39;;;;;;;26.00;19.70;;;12.60;99.90;;;;;;5076931;28;20222;-70
2022/03/30 12:42:07;;;;;;;16.75;13.38;;;12.60;99.90;;;;;;5076901;28;20606;-69
2022/03/30 12:44:37;;;;;;;14.18;12.38;;;12.40;99.90;;;;;;5076582;28;20233;-69